Weather Data

Pearl Creek Farm: 8878 N Farm Road 75, Walnut Grove MO 65770

<== Previous Day (Wednesday 11 Mar 2009) | Next Day (Friday 13 Mar 2009) ==>

Summary Precipitation Data For Thursday 12 March 2009

ElementValueUnits
Precipitation0"
Notes(none)
SourceSpringfield-Branson National Airport (SGF)

Summary Temperature Data For Thursday 12 March 2009

ElementValueUnits
High Temperature42 oF
Low Temperature27 oF
Average Temperature34 oF
High Humidity66 %
Low Humidity32 %
Average Humidity47 %
SourceSpringfield-Branson National Airport (SGF)

Detail Temperature Data For Thursday 12 March 2009

Date / TimeTemp (F)RH (%)Dew Pt (F)Report Date / TimeSource
2009-03-12 14:52:00 41 35 15.0 2017-12-29 19:14:24.89625 Springfield-Branson National Airport (SGF)
2009-03-12 15:52:00 42 32 14.0 2017-12-29 19:14:24.89625 Springfield-Branson National Airport (SGF)
2009-03-12 16:52:00 41 33 14.0 2017-12-29 19:14:24.89625 Springfield-Branson National Airport (SGF)
2009-03-12 17:52:00 39 38 15.0 2017-12-29 19:14:24.89625 Springfield-Branson National Airport (SGF)
2009-03-12 18:52:00 38 37 14.0 2017-12-29 19:14:24.89625 Springfield-Branson National Airport (SGF)
2009-03-12 19:52:00 38 37 14.0 2017-12-29 19:14:24.89625 Springfield-Branson National Airport (SGF)
2009-03-12 20:52:00 38 34 12.0 2017-12-29 19:14:24.89625 Springfield-Branson National Airport (SGF)
2009-03-12 21:52:00 37 36 12.0 2017-12-29 19:14:24.89625 Springfield-Branson National Airport (SGF)
2009-03-12 22:52:00 36 32 9.0 2017-12-29 19:14:24.89625 Springfield-Branson National Airport (SGF)
2009-03-12 23:52:00 36 34 10.0 2017-12-29 19:14:24.89625 Springfield-Branson National Airport (SGF)
2009-03-12 00:52:00 29 63 18.0 2017-12-29 19:14:24.89625 Springfield-Branson National Airport (SGF)
2009-03-12 01:52:00 29 66 19.0 2017-12-29 19:14:24.89625 Springfield-Branson National Airport (SGF)
2009-03-12 02:52:00 29 63 18.0 2017-12-29 19:14:24.89625 Springfield-Branson National Airport (SGF)
2009-03-12 03:52:00 28 66 18.0 2017-12-29 19:14:24.89625 Springfield-Branson National Airport (SGF)
2009-03-12 04:52:00 28 63 17.0 2017-12-29 19:14:24.89625 Springfield-Branson National Airport (SGF)
2009-03-12 05:52:00 28 60 16.0 2017-12-29 19:14:24.89625 Springfield-Branson National Airport (SGF)
2009-03-12 06:52:00 27 63 16.0 2017-12-29 19:14:24.89625 Springfield-Branson National Airport (SGF)
2009-03-12 07:52:00 28 58 15.0 2017-12-29 19:14:24.89625 Springfield-Branson National Airport (SGF)
2009-03-12 08:52:00 30 54 15.0 2017-12-29 19:14:24.89625 Springfield-Branson National Airport (SGF)
2009-03-12 09:52:00 31 54 16.0 2017-12-29 19:14:24.89625 Springfield-Branson National Airport (SGF)
2009-03-12 10:52:00 33 47 15.0 2017-12-29 19:14:24.89625 Springfield-Branson National Airport (SGF)
2009-03-12 11:52:00 35 44 15.0 2017-12-29 19:14:24.89625 Springfield-Branson National Airport (SGF)
2009-03-12 12:52:00 37 42 16.0 2017-12-29 19:14:24.89625 Springfield-Branson National Airport (SGF)
2009-03-12 13:52:00 39 38 15.0 2017-12-29 19:14:24.89625 Springfield-Branson National Airport (SGF)

A total of 24 rows are displayed.